createdAt,value
2022-12-03T00:03:16.385Z,97905.34
2022-12-03T00:08:17.747Z,97896.63
2022-12-03T00:13:19.049Z,97903.25
2022-12-03T00:18:20.304Z,97900.53
2022-12-03T00:23:21.529Z,97887.69
2022-12-03T00:28:22.763Z,97891.06
2022-12-03T00:33:24.000Z,97893.38
2022-12-03T00:38:25.216Z,97879.59
2022-12-03T00:43:26.499Z,97880.59
2022-12-03T00:48:27.815Z,97885.47
2022-12-03T00:53:29.080Z,97884.41
2022-12-03T00:58:30.327Z,97887.16
2022-12-03T01:03:31.528Z,97882.75
2022-12-03T01:08:32.729Z,97885.13
2022-12-03T01:13:33.994Z,97883.56
2022-12-03T01:18:35.267Z,97884.38
2022-12-03T01:23:36.574Z,97880.22
2022-12-03T01:28:37.851Z,97880.44
2022-12-03T01:33:39.108Z,97875.63
2022-12-03T01:38:40.468Z,97877.81
2022-12-03T01:43:41.750Z,97877.94
2022-12-03T01:48:43.064Z,97882.38
2022-12-03T01:53:44.357Z,97883.25
2022-12-03T01:58:45.613Z,97878.81
2022-12-03T02:03:47.017Z,97882.81
2022-12-03T02:08:48.275Z,97874.50
2022-12-03T02:13:49.755Z,97883.25
2022-12-03T02:18:50.998Z,97879.91
2022-12-03T02:23:52.312Z,97884.94
2022-12-03T02:28:53.571Z,97881.50
2022-12-03T02:33:54.857Z,97884.81
2022-12-03T02:38:56.065Z,97888.88
2022-12-03T02:43:57.324Z,97887.91
2022-12-03T02:48:58.576Z,97884.94
2022-12-03T02:53:59.828Z,97887.59
2022-12-03T02:59:01.234Z,97891.06
2022-12-03T03:04:03.281Z,97897.78
2022-12-03T03:09:04.562Z,97887.91
2022-12-03T03:14:05.829Z,97889.38
2022-12-03T03:19:07.046Z,97890.41
2022-12-03T03:24:08.417Z,97881.66
2022-12-03T03:29:09.672Z,97890.13
2022-12-03T03:34:10.978Z,97890.09
2022-12-03T03:39:12.430Z,97891.84
2022-12-03T03:44:13.665Z,97889.00
2022-12-03T03:49:14.908Z,97890.00
2022-12-03T03:54:16.205Z,97880.69
2022-12-03T03:59:17.649Z,97880.63
2022-12-03T04:04:19.689Z,97883.28
2022-12-03T04:09:21.061Z,97875.28
2022-12-03T04:14:22.264Z,97882.09
2022-12-03T04:19:23.517Z,97879.78
2022-12-03T04:24:24.728Z,97871.84
2022-12-03T04:29:25.979Z,97879.75
2022-12-03T04:34:46.174Z,97876.47
2022-12-03T04:39:47.383Z,97874.00
2022-12-03T04:44:48.581Z,97870.56
2022-12-03T04:49:49.808Z,97870.31
2022-12-03T04:54:51.376Z,97865.03
2022-12-03T04:59:52.825Z,97859.56
2022-12-03T05:04:54.400Z,97850.09
2022-12-03T05:09:55.914Z,97853.00
2022-12-03T05:14:57.150Z,97853.22
2022-12-03T05:20:17.292Z,97865.22
2022-12-03T05:25:18.504Z,97866.31
2022-12-03T05:30:19.869Z,97868.75
2022-12-03T05:35:21.143Z,97868.69
2022-12-03T05:40:22.522Z,97869.53
2022-12-03T05:45:23.926Z,97879.84
2022-12-03T05:50:25.188Z,97887.47
2022-12-03T05:55:26.480Z,97890.78
2022-12-03T06:00:27.776Z,97888.22
2022-12-03T06:05:29.070Z,97870.25
2022-12-03T06:10:30.423Z,97877.38
2022-12-03T06:15:31.847Z,97876.78
2022-12-03T06:20:33.170Z,97894.56
2022-12-03T06:25:34.456Z,97895.13
2022-12-03T06:30:35.942Z,97906.53
2022-12-03T06:35:37.227Z,97898.00
2022-12-03T06:40:38.552Z,97892.00
2022-12-03T06:45:44.558Z,97895.38
2022-12-03T06:50:48.793Z,97904.19
2022-12-03T06:55:50.098Z,97903.41
2022-12-03T07:00:51.461Z,97892.53
2022-12-03T07:05:52.828Z,97898.44
2022-12-03T07:10:54.275Z,97901.97
2022-12-03T07:15:55.595Z,97892.69
2022-12-03T07:20:56.877Z,97885.72
2022-12-03T07:25:58.140Z,97890.09
2022-12-03T07:30:59.462Z,97883.03
2022-12-03T07:36:00.765Z,97878.81
2022-12-03T07:41:01.988Z,97881.34
2022-12-03T07:46:03.278Z,97888.25
2022-12-03T07:51:04.567Z,97880.47
2022-12-03T07:56:05.884Z,97876.03
2022-12-03T08:01:07.332Z,97874.38
2022-12-03T08:06:08.645Z,97871.03
2022-12-03T08:11:09.986Z,97871.97
2022-12-03T08:16:11.366Z,97858.22
2022-12-03T08:21:12.644Z,97853.66
2022-12-03T08:26:13.891Z,97863.22
2022-12-03T08:31:18.550Z,97851.84
2022-12-03T08:36:20.386Z,97842.53
2022-12-03T08:41:41.625Z,97856.22
2022-12-03T08:46:42.847Z,97859.81
2022-12-03T08:51:44.386Z,97861.66
2022-12-03T08:56:45.675Z,97855.38
2022-12-03T09:01:47.049Z,97857.03
2022-12-03T09:07:04.204Z,97864.66
2022-12-03T09:12:05.458Z,97853.84
2022-12-03T09:17:06.744Z,97869.81
2022-12-03T09:22:08.113Z,97861.25
2022-12-03T09:27:09.382Z,97865.38
2022-12-03T09:32:16.677Z,97858.25
2022-12-03T09:37:19.449Z,97849.72
2022-12-03T09:42:20.678Z,97851.72
2022-12-03T09:47:22.120Z,97835.63
2022-12-03T09:52:23.496Z,97847.69
2022-12-03T09:57:27.302Z,97851.22
2022-12-03T10:02:28.614Z,97852.09
2022-12-03T10:07:29.938Z,97855.41
2022-12-03T10:12:31.222Z,97847.53
2022-12-03T10:17:32.436Z,97846.88
2022-12-03T10:22:37.281Z,97842.81
2022-12-03T10:27:38.580Z,97834.84
2022-12-03T10:32:39.923Z,97830.38
2022-12-03T10:37:41.166Z,97822.63
2022-12-03T10:42:42.567Z,97815.50
2022-12-03T10:47:43.925Z,97805.09
2022-12-03T10:52:45.254Z,97806.13
2022-12-03T10:57:47.259Z,97794.53
2022-12-03T11:02:54.824Z,97793.50
2022-12-03T11:07:57.961Z,97788.44
2022-12-03T11:12:59.274Z,97786.22
2022-12-03T11:18:00.721Z,97783.16
2022-12-03T11:23:01.950Z,97773.72
2022-12-03T11:28:03.381Z,97757.69
2022-12-03T11:33:04.725Z,97763.56
2022-12-03T11:38:05.933Z,97757.03
2022-12-03T11:43:07.124Z,97751.81
2022-12-03T11:48:08.452Z,97753.34
2022-12-03T11:53:09.738Z,97742.75
2022-12-03T11:58:10.971Z,97735.13
2022-12-03T12:03:12.394Z,97727.88
2022-12-03T12:08:13.713Z,97723.16
2022-12-03T12:13:15.054Z,97721.34
2022-12-03T12:18:16.334Z,97711.75
2022-12-03T12:23:17.606Z,97702.81
2022-12-03T12:33:20.862Z,97692.56
2022-12-03T12:38:22.218Z,97688.34
2022-12-03T12:43:24.587Z,97678.41
2022-12-03T12:48:26.183Z,97686.06
2022-12-03T12:53:27.443Z,97685.19
2022-12-03T12:58:28.660Z,97670.72
2022-12-03T13:03:29.894Z,97692.78
2022-12-03T13:08:31.129Z,97687.00
2022-12-03T13:13:32.418Z,97683.41
2022-12-03T13:18:33.758Z,97667.31
2022-12-03T13:23:35.028Z,97677.91
2022-12-03T13:28:36.305Z,97659.75
2022-12-03T13:33:37.506Z,97668.00
2022-12-03T13:38:38.760Z,97657.75
2022-12-03T13:43:44.332Z,97653.44
2022-12-03T13:48:45.979Z,97655.59
2022-12-03T13:53:47.255Z,97643.22
2022-12-03T13:58:48.489Z,97642.59
2022-12-03T14:03:49.714Z,97654.09
2022-12-03T14:08:51.429Z,97655.06
2022-12-03T14:13:52.638Z,97649.03
2022-12-03T14:18:53.876Z,97643.94
2022-12-03T14:23:55.097Z,97648.25
2022-12-03T14:28:56.386Z,97648.75
2022-12-03T14:33:57.706Z,97659.56
2022-12-03T14:38:58.974Z,97658.75
2022-12-03T14:44:00.224Z,97649.31
2022-12-03T14:49:01.478Z,97650.94
2022-12-03T14:54:02.769Z,97641.84
2022-12-03T14:59:04.063Z,97627.28
2022-12-03T15:04:05.326Z,97620.81
2022-12-03T15:09:06.647Z,97633.75
2022-12-03T15:14:08.278Z,97620.34
2022-12-03T15:19:09.699Z,97637.19
2022-12-03T15:24:32.981Z,97624.13
2022-12-03T15:29:34.256Z,97620.69
2022-12-03T15:34:35.677Z,97623.22
2022-12-03T15:39:37.613Z,97609.38
2022-12-03T15:44:38.890Z,97615.25
2022-12-03T15:49:40.132Z,97630.38
2022-12-03T15:54:41.395Z,97625.97
2022-12-03T15:59:43.219Z,97606.06
2022-12-03T16:04:44.493Z,97598.63
2022-12-03T16:09:45.946Z,97588.06
2022-12-03T16:14:47.194Z,97591.25
2022-12-03T16:19:49.088Z,97583.97
2022-12-03T16:24:50.517Z,97588.69
2022-12-03T16:29:52.006Z,97589.06
2022-12-03T16:34:53.522Z,97586.59
2022-12-03T16:39:54.973Z,97595.19
2022-12-03T16:44:59.450Z,97598.75
2022-12-03T16:50:00.809Z,97590.44
2022-12-03T16:55:02.078Z,97602.59
2022-12-03T17:00:03.474Z,97609.09
2022-12-03T17:05:04.741Z,97607.19
2022-12-03T17:10:06.077Z,97607.56
2022-12-03T17:15:07.316Z,97598.34
2022-12-03T17:20:08.720Z,97599.94
2022-12-03T17:25:09.933Z,97599.22
2022-12-03T17:30:11.213Z,97603.41
2022-12-03T17:35:12.484Z,97599.25
2022-12-03T17:40:13.716Z,97609.47
2022-12-03T17:45:14.912Z,97601.22
2022-12-03T17:50:16.124Z,97604.97
2022-12-03T17:55:27.704Z,97607.94
2022-12-03T18:00:32.524Z,97619.22
2022-12-03T18:05:33.746Z,97619.00
2022-12-03T18:10:34.988Z,97622.09
2022-12-03T18:15:36.280Z,97611.41
2022-12-03T18:20:37.485Z,97611.84
2022-12-03T18:25:38.996Z,97611.75
2022-12-03T18:30:40.332Z,97599.06
2022-12-03T18:35:41.546Z,97591.28
2022-12-03T18:40:42.792Z,97591.25
2022-12-03T18:45:44.015Z,97589.47
2022-12-03T18:50:45.334Z,97578.06
2022-12-03T18:55:46.621Z,97567.34
2022-12-03T19:00:47.940Z,97564.44
2022-12-03T19:05:49.295Z,97577.59
2022-12-03T19:10:50.504Z,97581.69
2022-12-03T19:15:54.849Z,97580.47
2022-12-03T19:20:56.224Z,97595.03
2022-12-03T19:25:57.510Z,97598.13
2022-12-03T19:30:58.881Z,97588.06
2022-12-03T19:36:00.097Z,97588.22
2022-12-03T19:41:01.312Z,97586.63
2022-12-03T19:46:02.682Z,97591.88
2022-12-03T19:51:26.611Z,97588.31
2022-12-03T19:56:25.273Z,97580.31
2022-12-03T20:01:26.614Z,97575.28
2022-12-03T20:06:27.980Z,97582.03
2022-12-03T20:11:29.267Z,97575.03
2022-12-03T20:16:30.537Z,97569.25
2022-12-03T20:21:31.887Z,97564.72
2022-12-03T20:26:33.145Z,97552.47
2022-12-03T20:31:34.545Z,97559.50
2022-12-03T20:36:36.009Z,97560.75
2022-12-03T20:41:37.529Z,97559.84
2022-12-03T20:46:39.069Z,97554.88
2022-12-03T20:51:42.339Z,97547.84
2022-12-03T20:56:43.740Z,97559.16
2022-12-03T21:01:45.167Z,97549.94
2022-12-03T21:06:46.904Z,97547.22
2022-12-03T21:11:48.862Z,97539.78
2022-12-03T21:17:07.859Z,97543.09
2022-12-03T21:22:09.994Z,97534.69
2022-12-03T21:27:11.278Z,97534.50
2022-12-03T21:32:21.613Z,97528.66
2022-12-03T21:37:23.022Z,97525.88
2022-12-03T21:42:36.013Z,97523.88
2022-12-03T21:47:38.274Z,97522.66
2022-12-03T21:52:39.588Z,97509.25
2022-12-03T21:57:40.859Z,97504.28
2022-12-03T22:02:42.221Z,97502.13
2022-12-03T22:07:43.634Z,97499.13
2022-12-03T22:12:44.916Z,97507.81
2022-12-03T22:17:46.136Z,97504.19
2022-12-03T22:22:47.384Z,97496.44
2022-12-03T22:27:48.648Z,97498.63
2022-12-03T22:32:49.879Z,97496.94
2022-12-03T22:37:51.128Z,97487.38
2022-12-03T22:42:52.377Z,97497.06
2022-12-03T22:47:53.645Z,97491.31
2022-12-03T22:52:54.909Z,97501.56
2022-12-03T22:57:56.204Z,97481.97
2022-12-03T23:02:57.566Z,97490.28
2022-12-03T23:07:58.928Z,97481.50
2022-12-03T23:13:00.271Z,97481.22
2022-12-03T23:18:01.550Z,97474.84
2022-12-03T23:23:02.805Z,97490.78
2022-12-03T23:28:04.111Z,97480.22
2022-12-03T23:33:05.427Z,97469.34
2022-12-03T23:38:06.736Z,97462.19
2022-12-03T23:43:08.026Z,97456.44
2022-12-03T23:48:09.308Z,97449.19
2022-12-03T23:53:10.683Z,97446.91
2022-12-03T23:58:11.930Z,97445.38
